Time;durP1;ratioP1;P1;durP2;ratioP2;P2;SDS_P1;SDS_P2;PMS_P1;PMS_P2;Temp;Humidity;BMP_temperature;BMP_pressure;BME280_temperature;BME280_humidity;BME280_pressure;Samples;Min_cycle;Max_cycle;Signal;HPM_P1;HPM_P2
2022/03/06 00:00:12;;;;;;;72.38;37.83;;;2.30;85.30;;;;;;5084292;28;20044;-76
2022/03/06 00:02:38;;;;;;;75.22;37.70;;;2.30;85.30;;;;;;5078617;28;20070;-76
2022/03/06 00:05:05;;;;;;;75.00;38.83;;;2.30;85.40;;;;;;5082749;28;20059;-74
2022/03/06 00:07:31;;;;;;;70.20;37.70;;;2.20;85.50;;;;;;5100743;28;20111;-75
2022/03/06 00:09:57;;;;;;;72.95;37.78;;;2.20;85.60;;;;;;5103354;28;20051;-75
2022/03/06 00:12:23;;;;;;;76.65;38.10;;;2.20;85.60;;;;;;5109611;28;20044;-76
2022/03/06 00:14:48;;;;;;;81.25;39.25;;;2.20;85.60;;;;;;5109890;28;20028;-75
2022/03/06 00:17:14;;;;;;;77.55;38.70;;;2.10;85.70;;;;;;5108313;28;20420;-75
2022/03/06 00:19:40;;;;;;;75.07;37.80;;;2.10;85.80;;;;;;5085651;28;20040;-76
2022/03/06 00:22:06;;;;;;;73.63;40.63;;;2.10;85.80;;;;;;5086865;28;20046;-75
2022/03/06 00:24:33;;;;;;;71.05;38.08;;;2.10;85.80;;;;;;5073512;28;20039;-75
2022/03/06 00:26:58;;;;;;;77.85;37.42;;;2.10;86.00;;;;;;5083916;28;20044;-75
2022/03/06 00:29:24;;;;;;;73.32;37.92;;;2.10;85.90;;;;;;5078512;28;20088;-75
2022/03/06 00:31:51;;;;;;;72.55;39.03;;;2.10;85.90;;;;;;5087303;28;20564;-75
2022/03/06 00:34:17;;;;;;;74.45;39.35;;;2.00;85.90;;;;;;5076243;28;20444;-75
2022/03/06 00:36:43;;;;;;;74.72;38.58;;;2.00;86.00;;;;;;5083125;28;20108;-76
2022/03/06 00:39:09;;;;;;;69.97;36.78;;;2.00;86.10;;;;;;5078751;28;20105;-76
2022/03/06 00:41:36;;;;;;;70.75;36.38;;;2.00;86.10;;;;;;5081045;28;20036;-76
2022/03/06 00:44:02;;;;;;;69.68;36.25;;;2.00;86.10;;;;;;5075106;28;20041;-76
2022/03/06 00:46:28;;;;;;;74.40;37.75;;;2.00;86.10;;;;;;5079775;28;20032;-75
2022/03/06 00:48:54;;;;;;;69.80;36.55;;;2.00;86.10;;;;;;5081913;28;20036;-76
2022/03/06 00:51:20;;;;;;;72.18;37.05;;;1.90;86.00;;;;;;5078433;28;20039;-75
2022/03/06 00:53:45;;;;;;;75.22;37.33;;;1.90;86.10;;;;;;5079303;28;20159;-76
2022/03/06 00:56:11;;;;;;;69.15;35.25;;;1.90;86.30;;;;;;5074847;28;20854;-75
2022/03/06 00:58:38;;;;;;;69.82;37.00;;;1.90;86.30;;;;;;5080938;28;20034;-76
2022/03/06 01:01:05;;;;;;;65.90;35.80;;;1.90;86.30;;;;;;5072202;28;20154;-75
2022/03/06 01:03:31;;;;;;;71.45;36.97;;;2.00;86.40;;;;;;5074630;28;20036;-75
2022/03/06 01:05:57;;;;;;;67.45;35.65;;;1.90;86.30;;;;;;5077089;28;20321;-76
2022/03/06 01:08:24;;;;;;;72.15;36.88;;;2.00;86.30;;;;;;5087923;28;20043;-76
2022/03/06 01:10:51;;;;;;;65.03;36.05;;;2.00;86.30;;;;;;5078808;28;20056;-75
2022/03/06 01:13:19;;;;;;;72.38;36.45;;;2.00;86.30;;;;;;5081005;28;20052;-75
2022/03/06 01:15:45;;;;;;;68.82;35.85;;;1.90;86.60;;;;;;5082969;28;20115;-76
2022/03/06 01:18:11;;;;;;;67.90;36.05;;;1.90;86.50;;;;;;5077767;28;20187;-76
2022/03/06 01:20:38;;;;;;;72.03;38.20;;;1.90;86.50;;;;;;5068883;28;20041;-75
2022/03/06 01:23:05;;;;;;;74.43;36.33;;;1.90;86.40;;;;;;5072767;28;20113;-77
2022/03/06 01:25:32;;;;;;;72.10;36.67;;;1.90;86.50;;;;;;5082491;28;20035;-77
2022/03/06 01:27:57;;;;;;;69.60;35.65;;;1.90;86.50;;;;;;5079398;28;20804;-76
2022/03/06 01:30:25;;;;;;;72.05;38.35;;;1.90;86.60;;;;;;5079686;28;20400;-75
2022/03/06 01:32:52;;;;;;;71.10;37.13;;;1.90;86.70;;;;;;5079116;28;20585;-75
2022/03/06 01:35:19;;;;;;;69.53;38.05;;;1.90;86.60;;;;;;5083266;28;20056;-76
2022/03/06 01:37:45;;;;;;;74.07;37.55;;;1.90;86.60;;;;;;5079562;28;20024;-75
2022/03/06 01:40:12;;;;;;;68.10;36.42;;;1.90;86.60;;;;;;5084404;28;20047;-76
2022/03/06 01:42:40;;;;;;;72.18;35.05;;;1.90;86.70;;;;;;5085472;28;20028;-76
2022/03/06 01:45:08;;;;;;;68.72;36.50;;;1.80;86.80;;;;;;5088441;28;20042;-75
2022/03/06 01:47:44;;;;;;;63.72;34.80;;;1.90;86.70;;;;;;5085835;28;20039;-76
2022/03/06 01:50:21;;;;;;;66.38;35.53;;;1.90;86.70;;;;;;5079134;28;20039;-75
2022/03/06 01:52:49;;;;;;;65.43;35.28;;;1.90;86.60;;;;;;5078175;28;20044;-76
2022/03/06 01:55:17;;;;;;;70.72;35.95;;;1.90;86.70;;;;;;5082352;28;20548;-76
2022/03/06 01:57:45;;;;;;;72.78;36.08;;;1.80;86.70;;;;;;5078712;28;20111;-75
2022/03/06 02:00:14;;;;;;;72.53;36.05;;;1.80;87.00;;;;;;5078024;28;20496;-76
2022/03/06 02:02:41;;;;;;;69.50;38.45;;;1.80;87.10;;;;;;5077160;28;20048;-75
2022/03/06 02:05:08;;;;;;;65.57;37.38;;;1.90;87.10;;;;;;5089467;28;20482;-75
2022/03/06 02:07:34;;;;;;;68.97;36.92;;;1.80;86.80;;;;;;5078063;28;20038;-75
2022/03/06 02:10:00;;;;;;;75.47;38.67;;;1.80;86.90;;;;;;5077708;28;20032;-75
2022/03/06 02:12:26;;;;;;;72.25;36.13;;;1.80;87.00;;;;;;5075302;28;20044;-75
2022/03/06 02:14:59;;;;;;;68.97;34.42;;;1.80;87.00;;;;;;5075312;28;20415;-75
2022/03/06 02:17:26;;;;;;;73.68;35.88;;;1.80;87.00;;;;;;5075471;28;20043;-75
2022/03/06 02:19:55;;;;;;;68.82;35.63;;;1.70;86.80;;;;;;5077833;28;20043;-76
2022/03/06 02:22:31;;;;;;;64.75;35.58;;;1.70;86.90;;;;;;5079658;28;20146;-75
2022/03/06 02:24:58;;;;;;;71.97;36.10;;;1.70;86.90;;;;;;5069197;28;20040;-76
2022/03/06 02:27:24;;;;;;;68.50;35.65;;;1.70;87.00;;;;;;5073632;28;20063;-76
2022/03/06 02:29:51;;;;;;;72.15;37.08;;;1.70;86.90;;;;;;5080053;28;20048;-76
2022/03/06 02:32:19;;;;;;;65.38;35.45;;;1.60;86.90;;;;;;5071321;28;20043;-76
2022/03/06 02:34:46;;;;;;;68.10;36.78;;;1.60;87.00;;;;;;5074679;28;20488;-75
2022/03/06 02:37:13;;;;;;;70.10;37.45;;;1.60;87.10;;;;;;5075775;28;20101;-76
2022/03/06 02:39:39;;;;;;;72.43;36.60;;;1.60;87.10;;;;;;5077520;28;20044;-75
2022/03/06 02:42:05;;;;;;;69.55;36.53;;;1.60;87.00;;;;;;5078392;28;20074;-76
2022/03/06 02:44:31;;;;;;;66.07;35.13;;;1.60;87.00;;;;;;5077038;28;20032;-75
2022/03/06 02:46:57;;;;;;;65.28;35.45;;;1.60;87.10;;;;;;5077812;28;20036;-75
2022/03/06 02:49:23;;;;;;;70.43;36.08;;;1.50;87.10;;;;;;5076529;28;20502;-76
2022/03/06 02:51:49;;;;;;;63.42;34.78;;;1.60;87.20;;;;;;5067940;28;20394;-75
2022/03/06 02:54:17;;;;;;;67.97;36.83;;;1.60;87.20;;;;;;5080109;28;20502;-76
2022/03/06 02:56:43;;;;;;;65.47;36.92;;;1.60;87.10;;;;;;5076137;28;20059;-75
2022/03/06 02:59:09;;;;;;;68.53;36.17;;;1.50;87.20;;;;;;5077036;28;20423;-75
2022/03/06 03:01:41;;;;;;;67.13;36.97;;;1.50;87.10;;;;;;5079722;28;20032;-76
2022/03/06 03:04:10;;;;;;;67.65;37.22;;;1.50;87.20;;;;;;5085213;28;20039;-76
2022/03/06 03:06:36;;;;;;;66.68;36.60;;;1.40;87.20;;;;;;5075653;28;20356;-76
2022/03/06 03:09:06;;;;;;;63.00;37.20;;;1.40;87.20;;;;;;5073815;28;20485;-75
2022/03/06 03:11:33;;;;;;;68.22;36.58;;;1.50;87.10;;;;;;5082152;28;20467;-75
2022/03/06 03:14:02;;;;;;;68.25;36.95;;;1.50;86.90;;;;;;5079306;28;20125;-76
2022/03/06 03:16:28;;;;;;;68.32;37.05;;;1.40;87.00;;;;;;5077429;28;20119;-75
2022/03/06 03:18:54;;;;;;;70.93;37.75;;;1.40;87.00;;;;;;5085272;28;20032;-75
2022/03/06 03:21:19;;;;;;;68.85;36.70;;;1.50;86.90;;;;;;5081798;28;20051;-75
2022/03/06 03:23:45;;;;;;;73.15;36.45;;;1.50;86.90;;;;;;5090143;28;20387;-75
2022/03/06 03:26:11;;;;;;;73.85;37.05;;;1.40;86.80;;;;;;5078339;28;20047;-76
2022/03/06 03:28:37;;;;;;;72.70;36.83;;;1.40;86.90;;;;;;5077795;28;20124;-75
2022/03/06 03:31:03;;;;;;;65.30;35.90;;;1.50;86.70;;;;;;5077595;28;20040;-75
2022/03/06 03:33:28;;;;;;;68.95;36.80;;;1.50;86.50;;;;;;5079477;28;20048;-76
2022/03/06 03:35:54;;;;;;;69.57;36.83;;;1.50;86.30;;;;;;5070827;28;20289;-75
2022/03/06 03:38:20;;;;;;;68.38;37.08;;;1.50;86.30;;;;;;5072370;28;20052;-75
2022/03/06 03:40:47;;;;;;;64.00;36.20;;;1.50;86.10;;;;;;5071504;28;20045;-76
2022/03/06 03:43:12;;;;;;;69.47;36.05;;;1.50;85.80;;;;;;5070308;28;20036;-76
2022/03/06 03:45:38;;;;;;;64.30;35.30;;;1.50;85.70;;;;;;5072575;28;20050;-75
2022/03/06 03:48:04;;;;;;;61.83;36.08;;;1.50;85.60;;;;;;5068640;28;20047;-75
2022/03/06 03:50:30;;;;;;;64.55;34.33;;;1.60;85.40;;;;;;5068312;28;20028;-76
2022/03/06 03:52:55;;;;;;;60.95;34.75;;;1.50;85.20;;;;;;5075349;28;20044;-76
2022/03/06 03:55:21;;;;;;;64.15;33.85;;;1.50;85.20;;;;;;5076505;28;20566;-75
2022/03/06 03:57:47;;;;;;;63.30;34.70;;;1.50;85.20;;;;;;5078339;28;20048;-75
2022/03/06 04:00:12;;;;;;;70.10;34.78;;;1.50;85.10;;;;;;5067491;28;20064;-75
2022/03/06 04:02:38;;;;;;;62.90;34.45;;;1.50;84.90;;;;;;5065546;28;20060;-75
2022/03/06 04:05:04;;;;;;;61.58;33.97;;;1.50;84.90;;;;;;5074423;28;20059;-75
2022/03/06 04:07:30;;;;;;;64.35;34.38;;;1.50;84.80;;;;;;5076549;28;20036;-76
2022/03/06 04:09:55;;;;;;;58.13;33.70;;;1.50;84.70;;;;;;5071042;28;20047;-76
2022/03/06 04:12:21;;;;;;;59.17;34.30;;;1.50;84.60;;;;;;5079352;27;20085;-77
2022/03/06 04:14:47;;;;;;;61.00;34.65;;;1.40;84.80;;;;;;5077720;28;20483;-77
2022/03/06 04:17:12;;;;;;;64.57;34.05;;;1.30;84.80;;;;;;5078082;27;20041;-75
2022/03/06 04:19:38;;;;;;;61.97;34.25;;;1.30;84.90;;;;;;5066033;28;20066;-76
2022/03/06 04:22:04;;;;;;;60.85;34.13;;;1.30;85.00;;;;;;5069422;28;20036;-75
2022/03/06 04:24:29;;;;;;;58.60;33.33;;;1.30;85.00;;;;;;5074858;28;20127;-75
2022/03/06 04:26:55;;;;;;;59.45;34.10;;;1.30;85.00;;;;;;5075301;28;20464;-76
2022/03/06 04:29:21;;;;;;;57.90;31.92;;;1.30;85.00;;;;;;5075075;28;20426;-76
2022/03/06 04:31:47;;;;;;;62.30;34.28;;;1.30;85.00;;;;;;5073927;28;20324;-76
2022/03/06 04:34:12;;;;;;;59.15;32.92;;;1.30;84.90;;;;;;5071891;28;20056;-76
2022/03/06 04:36:38;;;;;;;60.65;34.30;;;1.30;84.80;;;;;;5079843;28;20032;-75
2022/03/06 04:39:05;;;;;;;58.35;32.95;;;1.20;84.90;;;;;;5072169;28;20039;-76
2022/03/06 04:41:31;;;;;;;56.92;32.40;;;1.20;84.90;;;;;;5083710;28;20047;-76
2022/03/06 04:43:57;;;;;;;54.22;34.17;;;1.20;84.90;;;;;;5071017;28;20153;-75
2022/03/06 04:46:23;;;;;;;63.80;33.83;;;1.20;85.00;;;;;;5077481;28;20043;-75
2022/03/06 04:48:49;;;;;;;66.68;33.28;;;1.10;85.00;;;;;;5082649;28;20027;-75
2022/03/06 04:51:15;;;;;;;60.15;33.35;;;1.10;85.10;;;;;;5075104;28;20133;-76
2022/03/06 04:53:42;;;;;;;57.30;32.53;;;1.10;85.00;;;;;;5079022;28;20047;-75
2022/03/06 04:56:08;;;;;;;59.17;33.88;;;1.10;85.00;;;;;;5072287;28;20036;-75
2022/03/06 04:58:34;;;;;;;55.40;33.05;;;1.10;84.90;;;;;;5068082;28;20506;-75
2022/03/06 05:00:59;;;;;;;58.65;32.72;;;1.10;85.10;;;;;;5072906;28;20302;-76
2022/03/06 05:03:25;;;;;;;54.80;31.85;;;1.10;85.10;;;;;;5073124;28;20449;-75
2022/03/06 05:05:51;;;;;;;55.50;32.30;;;1.10;85.10;;;;;;5081112;28;20036;-76
2022/03/06 05:08:18;;;;;;;56.72;31.85;;;1.10;84.80;;;;;;5077063;28;20452;-75
2022/03/06 05:10:43;;;;;;;54.58;31.98;;;1.10;84.80;;;;;;5072514;28;20479;-75
2022/03/06 05:13:09;;;;;;;56.17;33.00;;;1.10;84.80;;;;;;5072746;28;20081;-75
2022/03/06 05:15:35;;;;;;;59.25;33.13;;;1.10;84.70;;;;;;5076411;28;20360;-75
2022/03/06 05:18:02;;;;;;;54.20;32.55;;;1.10;84.90;;;;;;5077001;28;20059;-75
2022/03/06 05:20:28;;;;;;;53.00;31.60;;;1.10;84.90;;;;;;5075844;28;20034;-75
2022/03/06 05:22:54;;;;;;;54.50;32.42;;;1.10;84.70;;;;;;5070909;28;20036;-75
2022/03/06 05:25:19;;;;;;;58.05;32.30;;;1.10;85.00;;;;;;5072672;28;20042;-75
2022/03/06 05:27:45;;;;;;;54.20;32.00;;;1.10;84.90;;;;;;5064952;28;20071;-75
2022/03/06 05:30:12;;;;;;;54.95;32.95;;;1.00;85.00;;;;;;5073697;28;20316;-75
2022/03/06 05:32:38;;;;;;;55.55;32.47;;;1.00;85.00;;;;;;5073506;28;20062;-75
2022/03/06 05:35:04;;;;;;;57.58;31.58;;;1.00;85.10;;;;;;5069009;28;20627;-75
2022/03/06 05:37:30;;;;;;;58.58;32.25;;;0.90;85.20;;;;;;5083664;28;20591;-76
2022/03/06 05:39:56;;;;;;;59.70;33.30;;;0.90;85.20;;;;;;5079301;28;20142;-75
2022/03/06 05:42:22;;;;;;;61.58;32.50;;;0.90;85.30;;;;;;5080515;28;20109;-75
2022/03/06 05:44:47;;;;;;;60.20;34.85;;;0.90;85.30;;;;;;5070071;28;20035;-75
2022/03/06 05:47:13;;;;;;;60.75;33.97;;;0.90;85.40;;;;;;5076552;28;20049;-76
2022/03/06 05:49:38;;;;;;;58.05;33.65;;;1.00;85.10;;;;;;5087688;28;20031;-76
2022/03/06 05:52:05;;;;;;;59.50;31.50;;;0.90;85.20;;;;;;5079404;28;20071;-76
2022/03/06 05:54:30;;;;;;;54.88;29.92;;;0.90;85.20;;;;;;5078308;28;20495;-76
2022/03/06 05:56:56;;;;;;;59.50;33.30;;;0.90;84.90;;;;;;5076809;28;20044;-75
2022/03/06 05:59:23;;;;;;;54.78;30.20;;;0.90;84.90;;;;;;5075138;28;20032;-76
2022/03/06 06:01:48;;;;;;;59.28;31.35;;;0.90;84.70;;;;;;5070274;28;20044;-76
2022/03/06 06:04:14;;;;;;;53.88;30.08;;;0.90;84.40;;;;;;5069116;28;20050;-76
2022/03/06 06:06:40;;;;;;;51.67;29.98;;;0.90;84.20;;;;;;5073489;28;20058;-76
2022/03/06 06:09:06;;;;;;;49.60;29.17;;;0.90;83.80;;;;;;5073624;28;20532;-75
2022/03/06 06:11:32;;;;;;;52.67;29.60;;;1.00;83.20;;;;;;5069586;28;20090;-76
2022/03/06 06:13:58;;;;;;;47.05;28.48;;;1.00;82.70;;;;;;5077052;28;20047;-75
2022/03/06 06:16:24;;;;;;;48.92;29.40;;;1.10;82.50;;;;;;5073430;28;20036;-76
2022/03/06 06:18:49;;;;;;;45.88;29.25;;;1.00;82.30;;;;;;5077670;28;20046;-75
2022/03/06 06:21:16;;;;;;;45.97;27.42;;;1.00;81.90;;;;;;5075561;28;20649;-75
2022/03/06 06:23:42;;;;;;;43.92;26.77;;;1.10;81.70;;;;;;5081753;28;20041;-75
2022/03/06 06:26:08;;;;;;;46.15;27.30;;;1.10;81.50;;;;;;5073141;28;20428;-75
2022/03/06 06:28:33;;;;;;;44.03;26.65;;;1.10;81.40;;;;;;5075892;28;20324;-75
2022/03/06 06:31:00;;;;;;;44.38;26.73;;;1.10;81.20;;;;;;5076669;28;20057;-75
2022/03/06 06:33:27;;;;;;;43.83;27.75;;;1.10;81.30;;;;;;5074139;28;20048;-74
2022/03/06 06:35:52;;;;;;;42.45;26.08;;;1.20;81.10;;;;;;5082497;28;20526;-75
2022/03/06 06:38:20;;;;;;;41.90;27.17;;;1.20;81.00;;;;;;5075452;28;20296;-75
2022/03/06 06:40:45;;;;;;;45.20;26.73;;;1.20;81.00;;;;;;5074818;28;20169;-75
2022/03/06 06:43:11;;;;;;;42.10;25.58;;;1.20;80.80;;;;;;5071679;28;20087;-75
2022/03/06 06:45:36;;;;;;;45.83;27.35;;;1.20;80.80;;;;;;5076981;28;20562;-74
2022/03/06 06:48:02;;;;;;;40.90;26.25;;;1.20;80.90;;;;;;5069477;28;20044;-74
2022/03/06 06:50:28;;;;;;;41.50;26.65;;;1.20;80.80;;;;;;5072225;28;20106;-76
2022/03/06 06:52:54;;;;;;;40.72;25.88;;;1.30;80.60;;;;;;5080974;28;20705;-75
2022/03/06 06:55:19;;;;;;;41.00;25.92;;;1.30;80.50;;;;;;5074210;28;20040;-75
2022/03/06 06:57:45;;;;;;;46.40;27.88;;;1.40;80.20;;;;;;5076511;28;20067;-75
2022/03/06 07:00:11;;;;;;;44.28;27.92;;;1.40;80.10;;;;;;5080722;28;20165;-75
2022/03/06 07:02:36;;;;;;;42.63;27.60;;;1.40;80.00;;;;;;5077874;28;20486;-75
2022/03/06 07:05:03;;;;;;;38.95;25.95;;;1.50;79.80;;;;;;5080964;28;20036;-76
2022/03/06 07:07:28;;;;;;;42.95;27.33;;;1.50;79.80;;;;;;5103002;28;20020;-74
2022/03/06 07:09:54;;;;;;;45.65;27.15;;;1.50;79.80;;;;;;5105516;28;20034;-75
2022/03/06 07:12:19;;;;;;;41.35;25.38;;;1.50;79.70;;;;;;5102451;28;20031;-75
2022/03/06 07:14:45;;;;;;;40.80;26.58;;;1.60;79.40;;;;;;5081308;28;20082;-76
2022/03/06 07:17:11;;;;;;;40.88;24.85;;;1.60;79.20;;;;;;5073791;28;20059;-75
2022/03/06 07:19:36;;;;;;;39.03;24.10;;;1.60;78.90;;;;;;5070878;28;20143;-75
2022/03/06 07:22:02;;;;;;;39.42;25.13;;;1.70;78.60;;;;;;5075329;28;20108;-76
2022/03/06 07:24:28;;;;;;;35.13;24.95;;;1.70;78.50;;;;;;5072848;28;20494;-75
2022/03/06 07:26:53;;;;;;;37.33;24.48;;;1.70;78.20;;;;;;5070940;28;20032;-75
2022/03/06 07:29:19;;;;;;;37.45;24.63;;;1.80;78.10;;;;;;5073980;28;20550;-75
2022/03/06 07:31:45;;;;;;;37.13;24.45;;;1.80;78.10;;;;;;5069829;28;20462;-75
2022/03/06 07:34:10;;;;;;;39.90;24.58;;;1.90;77.70;;;;;;5075984;28;20044;-75
2022/03/06 07:36:36;;;;;;;38.35;25.05;;;2.00;77.60;;;;;;5081926;28;20155;-75
2022/03/06 07:39:02;;;;;;;37.53;25.55;;;1.90;77.80;;;;;;5075572;28;20515;-75
2022/03/06 07:41:28;;;;;;;44.30;26.65;;;2.00;77.90;;;;;;5082469;28;20056;-75
2022/03/06 07:43:53;;;;;;;40.28;27.13;;;2.00;78.10;;;;;;5075309;28;20044;-75
2022/03/06 07:46:19;;;;;;;40.17;25.58;;;2.10;78.10;;;;;;5080570;28;20036;-74
2022/03/06 07:48:45;;;;;;;41.63;27.67;;;2.10;78.30;;;;;;5074476;28;20111;-78
2022/03/06 07:51:11;;;;;;;40.47;26.92;;;2.10;78.20;;;;;;5073795;27;20854;-75
2022/03/06 07:53:36;;;;;;;41.00;26.98;;;2.10;78.40;;;;;;5079779;28;20059;-75
2022/03/06 07:56:02;;;;;;;39.85;26.23;;;2.10;78.40;;;;;;5070869;28;20032;-75
2022/03/06 07:58:27;;;;;;;40.08;25.77;;;2.20;78.30;;;;;;5075936;28;20104;-74
2022/03/06 08:00:53;;;;;;;45.20;27.50;;;2.20;78.40;;;;;;5071421;28;20208;-75
2022/03/06 08:03:19;;;;;;;40.38;26.73;;;2.30;78.20;;;;;;5073756;28;20075;-74
2022/03/06 08:05:45;;;;;;;44.75;26.52;;;2.40;78.00;;;;;;5068741;28;20496;-75
2022/03/06 08:08:10;;;;;;;37.78;25.33;;;2.50;78.00;;;;;;5078192;28;20554;-75
2022/03/06 08:10:36;;;;;;;40.90;27.20;;;2.60;77.40;;;;;;5078201;28;20036;-75
2022/03/06 08:13:02;;;;;;;40.30;27.40;;;2.70;77.30;;;;;;5078944;28;20043;-75
2022/03/06 08:15:28;;;;;;;39.55;26.17;;;2.80;77.40;;;;;;5076983;28;20044;-75
2022/03/06 08:17:53;;;;;;;40.30;25.17;;;2.90;77.20;;;;;;5074880;28;20038;-75
2022/03/06 08:20:19;;;;;;;38.28;25.70;;;2.90;76.50;;;;;;5081958;28;20241;-76
2022/03/06 08:22:45;;;;;;;35.15;25.60;;;3.00;76.40;;;;;;5074617;28;20044;-76
2022/03/06 08:25:10;;;;;;;34.70;24.13;;;3.10;75.90;;;;;;5073950;28;20036;-76
2022/03/06 08:27:36;;;;;;;33.38;24.02;;;3.20;75.80;;;;;;5070506;28;20119;-76
2022/03/06 08:30:05;;;;;;;35.72;23.15;;;3.30;75.30;;;;;;5079974;28;20920;-76
2022/03/06 08:32:30;;;;;;;34.53;23.38;;;3.30;74.90;;;;;;5077213;28;20075;-74
2022/03/06 08:34:57;;;;;;;33.10;24.35;;;3.40;75.10;;;;;;5080746;28;20522;-75
2022/03/06 08:37:22;;;;;;;33.65;23.67;;;3.60;74.00;;;;;;5070849;28;20036;-75
2022/03/06 08:39:49;;;;;;;33.85;23.02;;;3.60;73.50;;;;;;5075455;28;20529;-72
2022/03/06 08:42:15;;;;;;;34.67;23.55;;;3.90;73.40;;;;;;5070290;28;20032;-72
2022/03/06 08:44:41;;;;;;;33.33;22.02;;;4.00;72.50;;;;;;5073121;28;20824;-72
2022/03/06 08:47:07;;;;;;;31.15;23.17;;;4.00;70.40;;;;;;5076583;28;20768;-71
2022/03/06 08:49:33;;;;;;;30.55;22.35;;;3.90;70.50;;;;;;5075825;28;20544;-72
2022/03/06 08:51:59;;;;;;;30.27;22.35;;;4.00;70.70;;;;;;5078558;28;20040;-73
2022/03/06 08:54:24;;;;;;;32.53;22.48;;;4.00;70.40;;;;;;5076765;28;20072;-72
2022/03/06 08:56:50;;;;;;;30.02;21.55;;;4.10;69.80;;;;;;5072938;28;20035;-72
2022/03/06 08:59:19;;;;;;;34.25;24.02;;;4.20;69.00;;;;;;5075872;28;20043;-72
2022/03/06 09:01:46;;;;;;;32.97;23.33;;;4.20;68.50;;;;;;5075013;28;20363;-72
2022/03/06 09:04:12;;;;;;;31.98;21.73;;;4.20;68.60;;;;;;5078052;28;20028;-72
2022/03/06 09:06:40;;;;;;;31.00;22.98;;;4.20;68.20;;;;;;5076575;28;20475;-73
2022/03/06 09:09:05;;;;;;;33.50;22.45;;;4.20;67.80;;;;;;5076428;28;20028;-72
2022/03/06 09:11:31;;;;;;;32.78;24.13;;;4.40;67.90;;;;;;5075480;28;20044;-72
2022/03/06 09:13:59;;;;;;;31.35;23.40;;;4.50;67.50;;;;;;5074546;28;20086;-72
2022/03/06 09:16:25;;;;;;;32.50;22.45;;;4.60;67.30;;;;;;5072929;28;20087;-71
2022/03/06 09:18:50;;;;;;;30.60;21.23;;;4.70;66.40;;;;;;5073152;28;20452;-71
2022/03/06 09:21:16;;;;;;;31.77;22.92;;;4.70;65.90;;;;;;5074844;28;20046;-71
2022/03/06 09:23:42;;;;;;;29.17;22.27;;;4.70;66.20;;;;;;5075733;28;20101;-71
2022/03/06 09:26:08;;;;;;;32.10;22.27;;;4.80;66.60;;;;;;5073953;28;20039;-72
2022/03/06 09:28:34;;;;;;;29.25;21.10;;;4.80;65.70;;;;;;5067618;28;20054;-73
2022/03/06 09:31:00;;;;;;;32.40;21.50;;;4.90;65.70;;;;;;5071504;28;20041;-73
2022/03/06 09:33:26;;;;;;;29.65;22.55;;;5.00;65.00;;;;;;5068550;28;20407;-72
2022/03/06 09:35:52;;;;;;;31.15;21.77;;;5.20;64.50;;;;;;5069769;28;20385;-73
2022/03/06 09:38:18;;;;;;;29.10;21.10;;;5.10;64.80;;;;;;5071448;28;20043;-73
2022/03/06 09:40:45;;;;;;;31.77;22.17;;;5.10;63.70;;;;;;5079876;28;20052;-72
2022/03/06 09:43:18;;;;;;;28.73;21.90;;;5.40;64.70;;;;;;5074351;28;20512;-73
2022/03/06 09:45:46;;;;;;;28.73;22.33;;;5.60;64.30;;;;;;5073017;28;20410;-73
2022/03/06 09:48:15;;;;;;;30.08;21.23;;;5.90;63.80;;;;;;5075343;28;20036;-73
2022/03/06 09:50:43;;;;;;;27.83;20.75;;;5.80;61.60;;;;;;5072600;28;20115;-73
2022/03/06 09:53:09;;;;;;;29.85;21.27;;;5.80;61.90;;;;;;5069802;28;20044;-71
2022/03/06 09:55:35;;;;;;;29.92;21.95;;;5.70;62.00;;;;;;5073985;28;20032;-74
2022/03/06 09:58:01;;;;;;;26.52;19.23;;;5.60;62.00;;;;;;5073570;28;20046;-72
2022/03/06 10:00:26;;;;;;;26.70;20.13;;;5.60;60.60;;;;;;5075735;28;20036;-73
2022/03/06 10:02:59;;;;;;;28.70;21.05;;;5.80;60.60;;;;;;5071938;28;20037;-73
2022/03/06 10:05:37;;;;;;;29.63;22.40;;;6.10;61.00;;;;;;5074157;28;20040;-73
2022/03/06 10:08:27;;;;;;;32.28;20.70;;;6.50;60.60;;;;;;5073270;28;20036;-71
2022/03/06 10:10:56;;;;;;;27.55;19.80;;;6.40;58.40;;;;;;5075131;28;20043;-72
2022/03/06 10:13:34;;;;;;;22.75;17.05;;;6.00;57.60;;;;;;5073491;28;20058;-71
2022/03/06 10:16:12;;;;;;;27.73;19.48;;;5.90;57.10;;;;;;5071884;28;20180;-71
2022/03/06 10:18:51;;;;;;;24.60;18.25;;;6.40;58.20;;;;;;5068641;28;20093;-73
2022/03/06 10:21:26;;;;;;;26.02;19.30;;;6.60;56.70;;;;;;5069532;28;20036;-73
2022/03/06 10:23:58;;;;;;;22.10;16.88;;;6.60;57.30;;;;;;5072504;28;20085;-73
2022/03/06 10:26:29;;;;;;;24.20;17.95;;;6.50;55.70;;;;;;5073949;28;21350;-73
2022/03/06 10:28:58;;;;;;;25.20;17.95;;;6.30;56.60;;;;;;5072858;28;20509;-74
2022/03/06 10:31:29;;;;;;;26.42;18.13;;;6.30;56.70;;;;;;5072604;28;20048;-72
2022/03/06 10:33:59;;;;;;;23.85;17.40;;;6.40;55.70;;;;;;5069934;28;20036;-72
2022/03/06 10:36:39;;;;;;;27.00;18.45;;;6.20;55.80;;;;;;5066595;28;20044;-73
2022/03/06 10:39:13;;;;;;;23.48;17.92;;;6.40;55.30;;;;;;5071116;28;20059;-73
2022/03/06 10:41:42;;;;;;;24.63;18.53;;;6.50;55.30;;;;;;5063679;28;20055;-72
2022/03/06 10:44:09;;;;;;;24.48;18.77;;;6.40;55.80;;;;;;5081308;28;20753;-72
2022/03/06 10:46:36;;;;;;;23.92;18.15;;;6.60;56.00;;;;;;5068019;28;20461;-73
2022/03/06 10:49:08;;;;;;;22.67;17.05;;;6.70;55.00;;;;;;5073738;28;20115;-73
2022/03/06 10:51:42;;;;;;;25.75;18.13;;;6.40;55.50;;;;;;5065368;28;20055;-74
2022/03/06 10:54:09;;;;;;;22.00;17.13;;;6.90;55.80;;;;;;5066720;28;20397;-75
2022/03/06 10:56:35;;;;;;;24.35;17.20;;;7.10;53.00;;;;;;5071838;28;20035;-75
2022/03/06 10:59:04;;;;;;;23.00;17.13;;;7.00;53.80;;;;;;5077630;28;20036;-73
2022/03/06 11:01:32;;;;;;;23.25;17.25;;;6.60;53.80;;;;;;5068806;28;20544;-72
2022/03/06 11:04:00;;;;;;;23.13;18.50;;;6.90;54.40;;;;;;5075297;28;20051;-71
2022/03/06 11:06:27;;;;;;;24.08;17.33;;;7.20;53.30;;;;;;5072588;28;20055;-72
2022/03/06 11:08:53;;;;;;;22.98;17.08;;;6.80;52.80;;;;;;5076848;28;20682;-70
2022/03/06 11:11:20;;;;;;;22.30;17.42;;;7.10;53.10;;;;;;5072847;28;20063;-73
2022/03/06 11:13:46;;;;;;;24.77;17.38;;;7.20;51.70;;;;;;5074975;28;20100;-72
2022/03/06 11:16:12;;;;;;;22.75;17.58;;;7.10;51.80;;;;;;5075130;28;20033;-72
2022/03/06 11:18:38;;;;;;;24.00;16.98;;;7.00;51.40;;;;;;5078754;28;20036;-73
2022/03/06 11:21:05;;;;;;;23.00;17.73;;;6.90;52.40;;;;;;5074528;28;20094;-71
2022/03/06 11:23:40;;;;;;;24.55;16.80;;;7.00;52.00;;;;;;5071128;28;20123;-71
2022/03/06 11:26:14;;;;;;;25.20;17.10;;;7.30;51.80;;;;;;5073306;28;20063;-73
2022/03/06 11:28:58;;;;;;;22.30;16.85;;;7.50;50.90;;;;;;5068308;28;20515;-72
2022/03/06 11:31:24;;;;;;;24.10;18.65;;;7.60;50.80;;;;;;5079575;27;20055;-73
2022/03/06 11:34:03;;;;;;;21.70;16.48;;;7.90;50.30;;;;;;5067083;28;20037;-74
2022/03/06 11:36:30;;;;;;;22.77;17.20;;;8.10;50.20;;;;;;5080384;28;20062;-73
2022/03/06 11:38:57;;;;;;;22.73;17.38;;;7.80;49.50;;;;;;5072828;28;20035;-74
2022/03/06 11:41:27;;;;;;;23.20;17.80;;;7.70;49.70;;;;;;5069165;28;20082;-73
2022/03/06 11:43:54;;;;;;;25.48;17.52;;;7.40;50.00;;;;;;5065817;28;20516;-72
2022/03/06 11:46:26;;;;;;;24.58;17.67;;;7.10;50.10;;;;;;5065398;28;20043;-74
2022/03/06 11:48:52;;;;;;;22.80;17.27;;;7.20;51.30;;;;;;5072845;28;20036;-74
2022/03/06 11:51:29;;;;;;;23.65;18.45;;;7.50;50.70;;;;;;5087412;28;20395;-71
2022/03/06 11:54:14;;;;;;;23.42;17.63;;;7.30;49.60;;;;;;5071863;28;20044;-72
2022/03/06 11:56:46;;;;;;;;;;;7.50;50.70;;;;;;5073241;28;20032;-70
2022/03/06 11:59:19;;;;;;;22.65;16.30;;;7.60;50.80;;;;;;5076932;28;19970;-72
2022/03/06 12:01:50;;;;;;;21.75;16.50;;;7.70;49.10;;;;;;5078424;28;20055;-74
2022/03/06 12:04:16;;;;;;;22.48;16.50;;;8.00;49.20;;;;;;5068545;28;20589;-74
2022/03/06 12:06:47;;;;;;;23.58;17.73;;;8.10;47.10;;;;;;5068103;28;20040;-74
2022/03/06 12:09:20;;;;;;;23.73;18.48;;;8.20;47.60;;;;;;5082311;28;20363;-72
2022/03/06 12:11:49;;;;;;;20.63;16.77;;;8.00;47.40;;;;;;5074952;28;20581;-71
2022/03/06 12:14:22;;;;;;;24.92;17.50;;;8.10;48.00;;;;;;5065958;28;20040;-73
2022/03/06 12:17:04;;;;;;;21.52;16.98;;;8.00;48.60;;;;;;5077554;28;20726;-71
2022/03/06 12:19:32;;;;;;;23.17;17.45;;;8.20;47.30;;;;;;5070966;28;20283;-69
2022/03/06 12:22:19;;;;;;;23.45;17.55;;;8.00;47.10;;;;;;5073788;28;20144;-71
2022/03/06 12:24:47;;;;;;;22.65;17.98;;;7.70;47.50;;;;;;5075379;28;20526;-71
2022/03/06 12:27:18;;;;;;;24.88;17.33;;;7.90;48.70;;;;;;5075400;28;20032;-70
2022/03/06 12:29:51;;;;;;;22.75;17.13;;;8.00;48.10;;;;;;5073520;28;20068;-70
2022/03/06 12:32:26;;;;;;;23.40;17.30;;;8.10;48.40;;;;;;5078101;28;20044;-71
2022/03/06 12:34:58;;;;;;;;;;;7.60;48.20;;;;;;5080154;28;20779;-70
2022/03/06 12:37:42;;;;;;;24.13;17.33;;;7.60;47.50;;;;;;5076435;28;20306;-71